Time;durP1;ratioP1;P1;durP2;ratioP2;P2;SDS_P1;SDS_P2;PMS_P1;PMS_P2;Temp;Humidity;BMP_temperature;BMP_pressure;BME280_temperature;BME280_humidity;BME280_pressure;Samples;Min_cycle;Max_cycle;Signal;HPM_P1;HPM_P2
2021/08/12 00:00:37;;;;;;;15.60;14.30;;;;;;;26.06;59.06;99586.59;5111664;28;20034;-74
2021/08/12 00:03:02;;;;;;;16.23;14.57;;;;;;;25.83;59.13;99554.75;5093519;28;20104;-75
2021/08/12 00:05:28;;;;;;;16.10;14.48;;;;;;;25.62;59.12;99526.97;5115391;28;20035;-74
2021/08/12 00:07:53;;;;;;;17.23;15.75;;;;;;;25.93;59.18;99577.16;5096839;28;20028;-75
2021/08/12 00:10:19;;;;;;;17.10;15.40;;;;;;;25.93;59.35;99569.03;5115261;28;20082;-75
2021/08/12 00:12:44;;;;;;;15.77;14.43;;;;;;;25.73;59.27;99527.75;5115308;28;20125;-75
2021/08/12 00:15:10;;;;;;;16.85;15.18;;;;;;;26.08;59.29;99599.84;5115366;28;20084;-75
2021/08/12 00:17:35;;;;;;;16.48;14.80;;;;;;;26.06;59.38;99597.41;5115088;28;20110;-73
2021/08/12 00:20:01;;;;;;;15.95;14.35;;;;;;;25.87;59.39;99574.75;5096877;28;20062;-74
2021/08/12 00:22:26;;;;;;;17.23;15.82;;;;;;;26.00;59.51;99595.78;5115050;28;20103;-74
2021/08/12 00:24:52;;;;;;;15.13;13.73;;;;;;;25.80;59.51;99566.94;5114976;28;20092;-74
2021/08/12 00:27:17;;;;;;;15.25;13.80;;;;;;;26.01;59.34;99605.56;5115137;28;20106;-73
2021/08/12 00:29:43;;;;;;;16.38;14.80;;;;;;;25.91;59.49;99590.16;5115026;28;20028;-74
2021/08/12 00:32:08;;;;;;;16.48;14.77;;;;;;;25.68;59.45;99557.53;5114932;28;20023;-74
2021/08/12 00:34:34;;;;;;;14.55;13.25;;;;;;;25.95;59.65;99610.16;5114768;28;20032;-74
2021/08/12 00:37:01;;;;;;;14.52;13.13;;;;;;;25.55;59.52;99537.28;5114788;28;20027;-74
2021/08/12 00:39:27;;;;;;;14.23;12.98;;;;;;;25.94;59.11;99595.00;5115034;28;20488;-76
2021/08/12 00:41:53;;;;;;;16.23;14.43;;;;;;;25.77;59.24;99575.59;5114793;28;20038;-75
2021/08/12 00:44:19;;;;;;;15.02;13.63;;;;;;;25.95;59.27;99602.03;5114884;28;20020;-74
2021/08/12 00:46:44;;;;;;;16.35;14.82;;;;;;;25.95;59.14;99609.34;5114602;28;20027;-74
2021/08/12 00:49:10;;;;;;;15.82;14.35;;;;;;;25.89;59.44;99613.16;5114493;28;20161;-74
2021/08/12 00:51:38;;;;;;;14.48;13.00;;;;;;;25.89;59.26;99603.16;5114575;28;20488;-74
2021/08/12 00:54:03;;;;;;;14.70;13.20;;;;;;;25.88;59.41;99611.53;5114668;28;20095;-74
2021/08/12 00:56:29;;;;;;;14.90;13.50;;;;;;;25.83;59.28;99604.25;5114640;28;20161;-74
2021/08/12 00:58:54;;;;;;;15.07;13.65;;;;;;;25.80;59.16;99607.50;5114528;28;20026;-74
2021/08/12 01:01:20;;;;;;;14.95;13.50;;;;;;;25.74;59.25;99610.50;5114525;28;20020;-74
2021/08/12 01:03:46;;;;;;;15.05;13.75;;;;;;;25.54;59.40;99581.63;5114209;28;20024;-74
2021/08/12 01:06:14;;;;;;;15.68;14.23;;;;;;;25.55;59.46;99586.75;5114232;28;20446;-74
2021/08/12 01:09:03;;;;;;;15.70;14.25;;;;;;;25.64;59.46;99611.31;5114081;28;20019;-74
2021/08/12 01:11:45;;;;;;;15.38;13.95;;;;;;;25.59;59.98;99600.53;5114091;28;20154;-76
2021/08/12 01:14:13;;;;;;;14.38;12.98;;;;;;;25.60;59.66;99612.97;5114027;28;20023;-74
2021/08/12 01:16:42;;;;;;;15.75;14.13;;;;;;;25.49;59.52;99589.75;5113305;28;20061;-74
2021/08/12 01:20:06;;;;;;;16.23;14.73;;;;;;;25.55;59.62;99594.06;5114000;28;20026;-75
2021/08/12 01:22:37;;;;;;;15.73;14.52;;;;;;;25.49;59.83;99600.56;5011721;28;20065;-75
2021/08/12 01:25:07;;;;;;;16.10;14.60;;;;;;;25.42;59.75;99598.13;5096222;28;20048;-74
2021/08/12 01:27:35;;;;;;;16.77;15.27;;;;;;;25.22;60.03;99582.75;5114118;28;20036;-74
2021/08/12 01:30:12;;;;;;;18.27;16.52;;;;;;;25.10;59.96;99560.63;5113924;28;20031;-74
2021/08/12 01:33:00;;;;;;;18.45;16.95;;;;;;;25.34;60.33;99610.31;5113814;28;20451;-74
2021/08/12 01:35:28;;;;;;;18.52;16.92;;;;;;;25.08;60.08;99578.19;5113749;28;21019;-74
2021/08/12 01:38:17;;;;;;;18.83;17.33;;;;;;;25.28;60.38;99613.31;5113767;28;20068;-74
2021/08/12 01:40:44;;;;;;;19.38;17.65;;;;;;;24.92;60.41;99561.16;5113771;28;20392;-74
2021/08/12 01:43:15;;;;;;;17.33;15.68;;;;;;;24.51;60.12;99500.94;5095189;28;20027;-74
2021/08/12 01:45:43;;;;;;;18.70;17.10;;;;;;;25.21;60.06;99605.44;5113690;28;20084;-74
2021/08/12 01:48:09;;;;;;;17.20;15.60;;;;;;;24.98;60.07;99576.28;5113506;28;20027;-74
2021/08/12 01:50:35;;;;;;;17.90;16.15;;;;;;;25.21;59.98;99610.84;5113393;28;20031;-75
2021/08/12 01:53:02;;;;;;;18.08;16.42;;;;;;;25.19;60.19;99602.22;5113327;28;20023;-75
2021/08/12 01:55:31;;;;;;;18.63;16.83;;;;;;;25.20;60.03;99598.44;5113222;28;20094;-74
2021/08/12 01:57:58;;;;;;;18.00;16.40;;;;;;;25.10;60.05;99590.34;5113231;28;20416;-74
2021/08/12 02:00:24;;;;;;;17.55;16.10;;;;;;;25.14;60.11;99596.81;5113281;28;20020;-74
2021/08/12 02:02:51;;;;;;;19.17;17.48;;;;;;;25.14;60.10;99599.50;5113156;28;20515;-75
2021/08/12 02:05:17;;;;;;;17.58;16.08;;;;;;;25.09;59.99;99596.81;5113201;28;20072;-74
2021/08/12 02:07:44;;;;;;;19.80;18.02;;;;;;;25.07;60.02;99603.56;5113211;28;20024;-74
2021/08/12 02:10:13;;;;;;;19.33;17.63;;;;;;;24.94;60.21;99607.59;5113083;28;20112;-74
2021/08/12 02:12:39;;;;;;;19.13;17.42;;;;;;;24.92;60.14;99605.16;5094788;28;20019;-74
2021/08/12 02:15:06;;;;;;;16.77;15.18;;;;;;;24.98;60.04;99608.72;5112898;28;20084;-74
2021/08/12 02:17:31;;;;;;;20.00;17.67;;;;;;;24.87;60.30;99574.66;5113079;28;20024;-75
2021/08/12 02:19:58;;;;;;;19.90;17.88;;;;;;;24.82;60.36;99561.16;5112897;28;20408;-75
2021/08/12 02:22:29;;;;;;;18.95;17.10;;;;;;;25.12;60.38;99598.97;5112791;28;20073;-75
2021/08/12 02:25:00;;;;;;;18.20;16.38;;;;;;;25.13;60.03;99600.59;5112654;28;20028;-74
2021/08/12 02:27:26;;;;;;;20.17;18.30;;;;;;;25.12;60.20;99587.34;5112366;28;20380;-74
2021/08/12 02:29:53;;;;;;;18.73;17.00;;;;;;;24.94;59.94;99549.00;5094217;28;20027;-74
2021/08/12 02:32:20;;;;;;;17.15;15.52;;;;;;;25.26;59.62;99596.53;5112338;28;20020;-73
2021/08/12 02:34:49;;;;;;;17.05;15.55;;;;;;;25.27;59.94;99604.38;5112326;28;20076;-74
2021/08/12 02:37:18;;;;;;;17.45;15.65;;;;;;;25.24;59.76;99602.19;5112422;28;20111;-75
2021/08/12 02:39:44;;;;;;;17.75;16.08;;;;;;;25.24;59.98;99610.31;5112185;28;20480;-73
2021/08/12 02:42:11;;;;;;;18.90;16.92;;;;;;;25.26;59.81;99605.44;5112339;28;20016;-73
2021/08/12 02:44:40;;;;;;;17.88;16.15;;;;;;;25.29;60.18;99604.91;5094166;28;20484;-74
2021/08/12 02:47:07;;;;;;;17.77;15.90;;;;;;;25.30;60.06;99611.94;5112391;28;20019;-76
2021/08/12 02:49:38;;;;;;;22.02;15.30;;;;;;;25.35;59.93;99613.84;5094032;28;20507;-76
2021/08/12 02:52:05;;;;;;;22.85;17.08;;;;;;;25.18;59.87;99584.38;5112233;28;20081;-76
2021/08/12 02:54:31;;;;;;;21.75;17.23;;;;;;;25.33;59.94;99608.69;5112675;28;20023;-76
2021/08/12 02:56:57;;;;;;;22.20;17.25;;;;;;;25.33;60.17;99608.69;5112138;28;20035;-75
2021/08/12 02:59:24;;;;;;;17.42;15.27;;;;;;;25.34;59.76;99598.69;5111922;28;20019;-75
2021/08/12 03:01:51;;;;;;;17.90;16.10;;;;;;;24.99;59.97;99553.59;5111972;28;20020;-75
2021/08/12 03:04:20;;;;;;;17.25;15.68;;;;;;;25.17;59.75;99585.47;5112075;28;20098;-74
2021/08/12 03:06:48;;;;;;;17.15;15.52;;;;;;;25.34;59.71;99613.03;5111870;28;20507;-76
2021/08/12 03:09:15;;;;;;;17.52;15.77;;;;;;;25.29;59.74;99598.72;5093360;28;20027;-75
2021/08/12 03:11:41;;;;;;;15.65;14.05;;;;;;;25.39;59.54;99619.50;5111825;28;20108;-76
2021/08/12 03:14:07;;;;;;;16.95;14.73;;;;;;;25.23;59.60;99597.88;5093603;28;20107;-75
2021/08/12 03:16:32;;;;;;;16.73;14.65;;;;;;;25.17;59.11;99587.34;5111891;28;20019;-74
2021/08/12 03:18:58;;;;;;;14.57;12.18;;;;;;;25.38;58.70;99617.88;5093511;28;20464;-75
2021/08/12 03:21:24;;;;;;;17.13;13.23;;;;;;;25.41;58.51;99630.84;5111764;28;20019;-76
2021/08/12 03:23:49;;;;;;;18.25;13.15;;;;;;;25.45;58.89;99627.31;5111785;28;20094;-75
2021/08/12 03:26:16;;;;;;;14.50;13.13;;;;;;;25.46;58.80;99623.53;5111611;28;20411;-73
2021/08/12 03:28:42;;;;;;;14.57;13.07;;;;;;;25.46;58.44;99628.94;5111865;28;20504;-76
2021/08/12 03:31:07;;;;;;;14.68;12.75;;;;;;;25.07;58.26;99576.56;5111536;28;20016;-75
2021/08/12 03:33:33;;;;;;;18.27;13.95;;;;;;;25.36;58.15;99626.25;5111674;28;20023;-75
2021/08/12 03:35:58;;;;;;;16.77;13.63;;;;;;;25.42;58.67;99637.88;5111519;28;20020;-75
2021/08/12 03:38:24;;;;;;;15.98;12.70;;;;;;;25.42;58.31;99640.59;5094592;28;20046;-76
2021/08/12 03:40:49;;;;;;;14.85;12.93;;;;;;;25.45;57.99;99640.03;5116183;28;20023;-76
2021/08/12 03:43:16;;;;;;;13.23;12.05;;;;;;;25.40;57.55;99634.63;5097499;28;20041;-75
2021/08/12 03:45:42;;;;;;;15.43;12.98;;;;;;;25.17;57.40;99631.41;5116032;28;20019;-75
2021/08/12 03:48:08;;;;;;;12.60;11.48;;;;;;;25.13;57.37;99638.41;5115788;28;20022;-76
2021/08/12 03:50:33;;;;;;;12.73;11.52;;;;;;;24.92;57.62;99613.28;5115640;28;20028;-76
2021/08/12 03:52:59;;;;;;;12.98;11.85;;;;;;;24.87;57.57;99596.25;5115948;28;20484;-74
2021/08/12 03:55:24;;;;;;;13.52;11.98;;;;;;;25.25;57.71;99651.66;5115527;28;20046;-76
2021/08/12 03:57:50;;;;;;;14.25;12.90;;;;;;;25.27;57.32;99655.75;5115572;28;20408;-75
2021/08/12 04:00:16;;;;;;;13.52;12.35;;;;;;;25.30;57.31;99660.59;5115545;28;20023;-75
2021/08/12 04:02:42;;;;;;;12.75;11.60;;;;;;;25.28;57.19;99660.06;5115468;28;20024;-75
2021/08/12 04:05:08;;;;;;;13.55;12.15;;;;;;;25.28;57.00;99660.06;5115391;28;20034;-74
2021/08/12 04:07:34;;;;;;;13.63;12.15;;;;;;;25.21;57.33;99651.38;5115395;28;20094;-74
2021/08/12 04:09:59;;;;;;;13.45;12.35;;;;;;;25.15;57.17;99632.75;5115507;28;20119;-75
2021/08/12 04:12:25;;;;;;;14.82;13.38;;;;;;;25.33;57.48;99657.34;5115436;28;20026;-75
2021/08/12 04:14:50;;;;;;;14.02;12.70;;;;;;;25.20;57.43;99635.44;5115330;28;20111;-75
2021/08/12 04:17:15;;;;;;;14.75;13.35;;;;;;;25.39;57.61;99657.34;5115294;28;20035;-75
2021/08/12 04:19:41;;;;;;;17.50;14.65;;;;;;;25.41;57.36;99660.59;5115116;28;20020;-74
2021/08/12 04:22:07;;;;;;;15.80;13.40;;;;;;;25.48;57.45;99671.94;5115119;28;20079;-75
2021/08/12 04:24:33;;;;;;;15.15;13.55;;;;;;;25.12;57.14;99625.19;5115102;28;20031;-74
2021/08/12 04:26:58;;;;;;;17.65;13.07;;;;;;;25.18;57.00;99626.78;5114958;28;20127;-75
2021/08/12 04:29:24;;;;;;;14.90;13.27;;;;;;;25.55;56.97;99669.75;5114858;28;20024;-73
2021/08/12 04:31:49;;;;;;;17.15;14.52;;;;;;;25.59;57.00;99684.34;5114959;28;20022;-75
2021/08/12 04:34:16;;;;;;;18.15;13.48;;;;;;;25.62;57.15;99681.91;5114904;28;20472;-75
2021/08/12 04:36:41;;;;;;;19.25;12.32;;;;;;;25.67;56.94;99678.41;5115010;28;20019;-76
2021/08/12 04:39:06;;;;;;;18.02;13.38;;;;;;;25.69;56.41;99681.66;5114562;28;20063;-75
2021/08/12 04:41:32;;;;;;;13.38;12.02;;;;;;;25.73;56.62;99676.50;5096212;28;20099;-74
2021/08/12 04:43:57;;;;;;;17.65;12.77;;;;;;;25.80;56.29;99683.25;5114775;28;20023;-75
2021/08/12 04:46:23;;;;;;;13.40;12.18;;;;;;;25.57;56.06;99643.25;5114644;28;20077;-74
2021/08/12 04:48:48;;;;;;;14.73;11.88;;;;;;;25.78;56.13;99669.19;5114404;28;20578;-74
2021/08/12 04:51:13;;;;;;;13.57;12.40;;;;;;;25.89;55.65;99688.91;5112987;28;20024;-75
2021/08/12 04:53:39;;;;;;;15.32;13.88;;;;;;;25.86;56.07;99686.75;5114617;28;20061;-76
2021/08/12 04:56:04;;;;;;;14.65;13.15;;;;;;;25.81;55.77;99684.06;5114457;28;20020;-76
2021/08/12 04:58:31;;;;;;;15.18;13.70;;;;;;;25.50;55.90;99630.03;5114465;28;20047;-74
2021/08/12 05:00:56;;;;;;;16.05;13.68;;;;;;;25.52;56.28;99638.66;5114390;28;20448;-75
2021/08/12 05:03:22;;;;;;;15.57;13.57;;;;;;;25.75;56.01;99691.38;5114230;28;20103;-75
2021/08/12 05:05:47;;;;;;;15.85;13.88;;;;;;;25.79;56.15;99688.94;5114472;28;20030;-75
2021/08/12 05:08:12;;;;;;;16.67;13.45;;;;;;;25.85;56.13;99699.47;5114200;28;20079;-76
2021/08/12 05:10:38;;;;;;;14.93;13.48;;;;;;;25.92;56.27;99696.47;5114177;28;20110;-75
2021/08/12 05:13:03;;;;;;;15.60;13.10;;;;;;;25.58;56.01;99642.16;5113852;28;20518;-76
2021/08/12 05:15:29;;;;;;;14.52;13.25;;;;;;;25.91;56.25;99692.16;5113714;28;20020;-73
2021/08/12 05:17:55;;;;;;;14.52;13.05;;;;;;;25.93;56.40;99698.09;5113930;28;20054;-76
2021/08/12 05:20:21;;;;;;;15.90;14.25;;;;;;;25.75;56.31;99660.81;5113965;28;20239;-76
2021/08/12 05:22:47;;;;;;;17.15;15.57;;;;;;;25.93;56.06;99698.91;5113932;28;20032;-75
2021/08/12 05:25:12;;;;;;;16.02;14.35;;;;;;;25.78;56.47;99669.19;5113749;28;20187;-76
2021/08/12 05:27:38;;;;;;;16.48;14.80;;;;;;;25.95;56.44;99698.63;5113790;28;20026;-75
2021/08/12 05:30:03;;;;;;;18.17;14.10;;;;;;;26.02;56.06;99704.59;5113633;28;20031;-75
2021/08/12 05:32:29;;;;;;;16.98;15.25;;;;;;;26.10;56.34;99700.50;5113508;28;20024;-76
2021/08/12 05:34:54;;;;;;;17.33;15.43;;;;;;;26.13;56.00;99706.16;5113589;28;20530;-75
2021/08/12 05:37:20;;;;;;;15.07;13.57;;;;;;;26.18;55.96;99711.56;5095438;28;20030;-76
2021/08/12 05:39:45;;;;;;;15.75;12.65;;;;;;;25.92;55.70;99667.53;5113757;28;20024;-77
2021/08/12 05:42:10;;;;;;;14.95;13.45;;;;;;;26.28;55.38;99716.13;5113606;28;20107;-73
2021/08/12 05:44:36;;;;;;;15.77;13.77;;;;;;;26.06;55.64;99677.78;5113623;28;20015;-75
2021/08/12 05:47:01;;;;;;;15.50;13.93;;;;;;;26.33;55.36;99718.03;5113505;28;20027;-75
2021/08/12 05:49:27;;;;;;;14.18;12.73;;;;;;;26.25;55.44;99705.84;5111429;27;20054;-75
2021/08/12 05:51:53;;;;;;;15.82;13.38;;;;;;;26.36;55.39;99722.88;5114385;27;20416;-74
2021/08/12 05:54:18;;;;;;;14.10;12.55;;;;;;;26.16;55.28;99683.16;5099747;28;20030;-75
2021/08/12 05:56:44;;;;;;;13.77;12.48;;;;;;;26.46;55.04;99718.25;5113129;28;20020;-76
2021/08/12 05:59:09;;;;;;;13.80;12.20;;;;;;;26.53;54.75;99712.50;5113030;28;20023;-75
2021/08/12 06:01:35;;;;;;;13.77;12.20;;;;;;;26.58;54.59;99721.44;5112688;28;20491;-76
2021/08/12 06:04:00;;;;;;;14.82;11.88;;;;;;;26.67;54.28;99726.25;5112987;28;20015;-75
2021/08/12 06:06:25;;;;;;;12.15;11.05;;;;;;;26.79;53.93;99726.75;5113112;28;20388;-75
2021/08/12 06:08:51;;;;;;;11.60;10.50;;;;;;;26.72;53.21;99696.44;5113046;28;20076;-75
2021/08/12 06:11:16;;;;;;;11.88;10.60;;;;;;;26.80;53.09;99709.41;5112881;28;20084;-75
2021/08/12 06:13:42;;;;;;;10.88;9.75;;;;;;;26.66;52.77;99689.44;5112922;28;20484;-75
2021/08/12 06:16:08;;;;;;;13.00;11.70;;;;;;;26.97;52.32;99734.22;5094466;28;20072;-75
2021/08/12 06:18:33;;;;;;;11.70;10.55;;;;;;;27.03;52.57;99732.31;5112581;28;20353;-75
2021/08/12 06:20:59;;;;;;;15.45;13.68;;;;;;;27.14;52.34;99742.81;5112762;28;20012;-73
2021/08/12 06:23:25;;;;;;;16.25;14.68;;;;;;;26.90;52.83;99695.78;5094436;28;20052;-72
2021/08/12 06:25:50;;;;;;;15.82;12.65;;;;;;;27.22;52.79;99736.78;5112275;28;20043;-75
2021/08/12 06:28:16;;;;;;;18.02;16.35;;;;;;;27.37;52.77;99743.16;5094156;28;20411;-75
2021/08/12 06:30:41;;;;;;;17.50;15.93;;;;;;;27.40;52.68;99742.59;5112415;28;20089;-75
2021/08/12 06:33:06;;;;;;;13.30;12.07;;;;;;;27.43;52.45;99747.47;5110342;28;20118;-75
2021/08/12 06:35:34;;;;;;;14.75;13.27;;;;;;;27.23;52.34;99711.28;5106356;28;20019;-73
2021/08/12 06:38:03;;;;;;;16.52;14.52;;;;;;;27.53;52.47;99741.97;5105496;28;20466;-76
2021/08/12 06:40:29;;;;;;;11.90;10.88;;;;;;;27.59;51.78;99743.56;5077005;28;20056;-75
2021/08/12 06:42:55;;;;;;;11.48;10.48;;;;;;;27.61;51.09;99744.09;5093866;28;20032;-72
2021/08/12 06:45:21;;;;;;;11.98;9.75;;;;;;;27.63;50.76;99744.63;5111376;28;20412;-75
2021/08/12 06:47:48;;;;;;;12.45;10.43;;;;;;;27.68;50.43;99747.28;5088570;28;20073;-75
2021/08/12 06:50:16;;;;;;;13.48;11.02;;;;;;;27.59;50.58;99740.84;5107136;28;20416;-75
2021/08/12 06:52:42;;;;;;;12.80;11.50;;;;;;;27.74;50.14;99748.88;5108301;28;20031;-75
2021/08/12 06:55:08;;;;;;;12.40;11.10;;;;;;;27.74;50.05;99751.56;5110410;28;20023;-75
2021/08/12 06:57:33;;;;;;;11.80;10.65;;;;;;;27.78;50.02;99755.34;5109892;28;20503;-73
2021/08/12 06:59:59;;;;;;;12.07;10.88;;;;;;;27.43;49.92;99690.50;5094984;28;20096;-74
2021/08/12 07:02:24;;;;;;;11.27;10.27;;;;;;;27.87;49.44;99754.72;5104145;28;20036;-74
2021/08/12 07:04:50;;;;;;;13.18;10.48;;;;;;;27.94;49.48;99753.28;5106564;28;20027;-73
2021/08/12 07:07:15;;;;;;;11.75;10.48;;;;;;;27.94;49.27;99741.63;5109420;28;20106;-74
2021/08/12 07:09:42;;;;;;;12.50;11.27;;;;;;;28.10;49.39;99745.78;5103983;28;20023;-74
2021/08/12 07:12:08;;;;;;;11.82;10.77;;;;;;;28.16;49.14;99752.78;5109557;28;20027;-75
2021/08/12 07:14:33;;;;;;;11.93;10.68;;;;;;;28.03;49.12;99737.97;5110731;28;20026;-74
2021/08/12 07:16:59;;;;;;;12.40;11.23;;;;;;;28.34;48.78;99756.69;5111771;28;20031;-74
2021/08/12 07:19:25;;;;;;;11.95;10.80;;;;;;;28.45;48.60;99761.72;5111823;28;20038;-74
2021/08/12 07:21:52;;;;;;;11.70;10.20;;;;;;;28.44;48.39;99751.94;5109225;28;20027;-73
2021/08/12 07:24:17;;;;;;;10.30;9.23;;;;;;;28.24;48.25;99714.19;5091137;28;20026;-73
2021/08/12 07:26:46;;;;;;;10.52;9.50;;;;;;;28.30;47.96;99712.22;5109545;28;20118;-73
2021/08/12 07:29:12;;;;;;;10.65;9.60;;;;;;;28.73;47.12;99759.19;5110213;28;20411;-74
2021/08/12 07:31:37;;;;;;;10.15;9.13;;;;;;;28.58;46.96;99745.78;5110565;28;20032;-72
2021/08/12 07:34:02;;;;;;;10.85;9.23;;;;;;;28.47;47.02;99720.66;5110658;28;20411;-75
2021/08/12 07:36:28;;;;;;;11.30;9.73;;;;;;;28.67;46.37;99736.69;5109350;28;20039;-72
2021/08/12 07:38:53;;;;;;;9.52;8.50;;;;;;;28.98;46.11;99769.72;5110525;28;20568;-75
2021/08/12 07:41:19;;;;;;;10.25;9.30;;;;;;;29.05;45.90;99767.47;5091773;28;20028;-75
2021/08/12 07:43:44;;;;;;;9.38;8.60;;;;;;;28.95;45.97;99750.47;5108408;28;20040;-75
2021/08/12 07:46:10;;;;;;;10.23;9.20;;;;;;;29.07;45.58;99759.81;5092151;28;20092;-75
2021/08/12 07:48:36;;;;;;;10.05;9.05;;;;;;;29.08;45.63;99742.41;5111083;28;20024;-75
2021/08/12 07:51:02;;;;;;;10.55;9.10;;;;;;;29.17;44.98;99753.44;5109194;28;20020;-74
2021/08/12 07:53:28;;;;;;;11.07;9.88;;;;;;;29.30;44.60;99746.41;5092842;28;20039;-73
2021/08/12 07:55:56;;;;;;;10.98;9.30;;;;;;;29.51;44.49;99777.66;5107683;28;20023;-75
2021/08/12 07:58:21;;;;;;;9.68;8.77;;;;;;;29.47;44.39;99752.16;5108381;28;20030;-74
2021/08/12 08:00:47;;;;;;;9.38;8.48;;;;;;;29.71;43.86;99777.31;5109405;28;20060;-73
2021/08/12 08:03:12;;;;;;;10.05;8.38;;;;;;;29.81;43.18;99781.00;5105459;28;20028;-73
2021/08/12 08:05:38;;;;;;;10.57;8.85;;;;;;;29.89;42.98;99777.56;5119584;28;20034;-74
2021/08/12 08:08:03;;;;;;;8.75;8.05;;;;;;;29.87;42.48;99753.38;5111688;28;20036;-72
2021/08/12 08:10:29;;;;;;;9.45;8.60;;;;;;;30.10;42.96;99778.03;5110792;28;20020;-75
2021/08/12 08:12:55;;;;;;;15.40;13.90;;;;;;;30.20;42.96;99783.28;5110928;28;20102;-75
2021/08/12 08:15:21;;;;;;;9.82;8.82;;;;;;;30.23;42.61;99775.31;5105645;28;20039;-72
2021/08/12 08:17:47;;;;;;;11.88;10.07;;;;;;;30.16;42.08;99742.22;5108420;28;20027;-73
2021/08/12 08:20:14;;;;;;;12.15;9.07;;;;;;;30.47;41.64;99777.03;5108986;28;20019;-72
2021/08/12 08:22:40;;;;;;;12.52;11.02;;;;;;;30.56;41.26;99765.13;5110802;28;20488;-75
2021/08/12 08:25:07;;;;;;;17.15;14.63;;;;;;;30.61;41.13;99765.06;5094523;28;20102;-77
2021/08/12 08:27:33;;;;;;;25.15;11.88;;;;;;;30.78;40.43;99777.25;5113253;28;20020;-73
2021/08/12 08:29:59;;;;;;;13.93;10.65;;;;;;;30.82;39.89;99751.78;5113675;28;20122;-74
2021/08/12 08:32:25;;;;;;;12.88;10.70;;;;;;;30.73;39.59;99728.28;5114462;28;20028;-78
2021/08/12 08:34:51;;;;;;;11.57;10.43;;;;;;;31.04;39.29;99767.38;5108068;28;20036;-78
2021/08/12 08:37:16;;;;;;;14.77;13.38;;;;;;;30.99;39.33;99730.13;5116081;27;20329;-77
2021/08/12 08:39:42;;;;;;;15.35;13.75;;;;;;;31.31;39.21;99761.06;5126507;27;20015;-77
2021/08/12 08:42:08;;;;;;;10.48;9.38;;;;;;;31.40;39.17;99764.66;5096191;28;20072;-77
2021/08/12 08:44:38;;;;;;;9.27;7.75;;;;;;;31.47;38.19;99759.56;5112117;28;20028;-78
2021/08/12 08:47:07;;;;;;;9.10;7.90;;;;;;;31.53;38.11;99761.06;5110605;28;20029;-79
2021/08/12 08:49:36;;;;;;;9.50;8.60;;;;;;;31.60;37.64;99757.88;5113441;28;20039;-78
2021/08/12 08:52:03;;;;;;;10.88;8.18;;;;;;;31.73;36.82;99757.03;5109878;28;20019;-79
2021/08/12 08:54:31;;;;;;;11.25;10.15;;;;;;;31.65;36.73;99741.38;5097965;28;20089;-78
2021/08/12 08:56:56;;;;;;;8.57;6.72;;;;;;;31.58;36.20;99719.19;5104351;28;20114;-78
2021/08/12 08:59:23;;;;;;;10.68;7.25;;;;;;;31.84;35.93;99735.72;5111068;27;20090;-78
2021/08/12 09:01:49;;;;;;;6.78;6.07;;;;;;;31.98;35.26;99738.38;5092246;28;20084;-79
2021/08/12 09:04:15;;;;;;;8.65;5.38;;;;;;;32.15;34.37;99752.91;5109464;27;20027;-79
2021/08/12 09:06:40;;;;;;;8.40;6.43;;;;;;;32.25;34.45;99757.31;5116685;27;20019;-78
2021/08/12 09:09:06;;;;;;;7.60;6.90;;;;;;;32.40;33.76;99758.78;5112021;28;20511;-78
2021/08/12 09:11:31;;;;;;;6.20;5.70;;;;;;;32.18;34.00;99714.03;5110581;27;20020;-78
2021/08/12 09:13:56;;;;;;;6.43;5.82;;;;;;;32.61;33.68;99751.59;5093182;28;20020;-78
2021/08/12 09:16:33;;;;;;;9.50;6.50;;;;;;;32.38;32.04;99698.19;5093397;28;20024;-78
2021/08/12 09:19:19;;;;;;;7.80;6.10;;;;;;;32.85;33.24;99745.72;5108357;28;20057;-77
2021/08/12 09:21:45;;;;;;;7.32;6.63;;;;;;;32.96;32.54;99741.56;5112012;28;20023;-79
2021/08/12 09:24:11;;;;;;;6.32;5.63;;;;;;;33.15;32.44;99743.97;5113286;28;20027;-79
2021/08/12 09:26:38;;;;;;;7.15;6.45;;;;;;;33.09;32.28;99713.22;5113457;28;20030;-79
2021/08/12 09:29:07;;;;;;;8.90;5.93;;;;;;;33.33;31.49;99742.84;5111660;28;20496;-78
2021/08/12 09:31:33;;;;;;;6.70;5.80;;;;;;;33.46;31.47;99730.94;5112056;28;20030;-79
2021/08/12 09:34:10;;;;;;;7.10;6.32;;;;;;;33.66;30.83;99740.38;5111929;28;20024;-78
2021/08/12 09:36:39;;;;;;;6.20;5.50;;;;;;;33.67;31.00;99722.81;5112621;28;20054;-79
2021/08/12 09:39:22;;;;;;;7.68;5.65;;;;;;;34.01;29.67;99743.03;5113074;28;20023;-78
2021/08/12 09:41:55;;;;;;;6.32;5.47;;;;;;;33.90;29.35;99731.63;5113211;28;20019;-79
2021/08/12 09:44:33;;;;;;;6.50;5.07;;;;;;;34.15;28.99;99740.84;5111928;28;20103;-79
2021/08/12 09:47:04;;;;;;;6.20;5.60;;;;;;;34.26;29.61;99736.63;5112262;28;20507;-78
2021/08/12 09:49:43;;;;;;;5.70;5.20;;;;;;;34.46;28.61;99740.59;5112557;28;20023;-79
2021/08/12 09:52:26;;;;;;;7.63;4.80;;;;;;;34.71;28.43;99744.28;5112795;28;20487;-79
2021/08/12 09:55:05;;;;;;;5.50;5.00;;;;;;;34.90;27.91;99743.84;5107839;28;20100;-77
2021/08/12 09:57:49;;;;;;;7.18;5.97;;;;;;;35.08;27.32;99747.28;5095662;28;20027;-76
2021/08/12 10:00:15;;;;;;;7.43;6.07;;;;;;;35.25;27.20;99739.69;5108886;28;20454;-76
2021/08/12 10:02:40;;;;;;;5.82;4.75;;;;;;;35.39;27.21;99735.88;5111754;28;20031;-78
2021/08/12 10:05:10;;;;;;;5.78;5.18;;;;;;;35.58;26.42;99723.22;5105234;28;20024;-77
2021/08/12 10:07:50;;;;;;;8.83;4.70;;;;;;;35.63;25.21;99736.72;5092153;28;20024;-76
2021/08/12 10:10:16;;;;;;;6.57;5.22;;;;;;;35.72;26.63;99738.59;5097525;28;20719;-79
2021/08/12 10:12:46;;;;;;;5.30;4.78;;;;;;;35.89;25.56;99746.66;5112590;28;20143;-77
2021/08/12 10:15:13;;;;;;;5.18;4.60;;;;;;;35.85;25.58;99708.09;5112742;28;20019;-77
2021/08/12 10:17:42;;;;;;;5.10;4.60;;;;;;;36.12;25.61;99727.78;5093778;28;20032;-77
2021/08/12 10:20:17;;;;;;;6.80;5.47;;;;;;;36.31;25.14;99725.28;5111038;28;20484;-79
2021/08/12 10:22:43;;;;;;;5.30;4.20;;;;;;;36.52;24.96;99733.41;5110912;28;20035;-78
2021/08/12 10:25:11;;;;;;;5.15;4.75;;;;;;;36.62;24.49;99721.94;5093923;28;20035;-73
2021/08/12 10:27:38;;;;;;;5.47;4.97;;;;;;;36.36;24.48;99683.00;5092208;28;20031;-75
2021/08/12 10:30:04;;;;;;;6.90;4.95;;;;;;;36.43;24.79;99666.72;5094382;28;20032;-73
2021/08/12 10:32:30;;;;;;;8.27;6.85;;;;;;;36.57;24.76;99678.97;5111964;28;20138;-74
2021/08/12 10:34:55;;;;;;;9.60;5.60;;;;;;;36.99;25.06;99719.88;5112668;28;20574;-74
2021/08/12 10:37:21;;;;;;;5.80;4.88;;;;;;;37.00;24.31;99704.97;5112502;28;20023;-74
2021/08/12 10:39:46;;;;;;;8.13;6.20;;;;;;;36.88;24.12;99672.78;5107764;28;20632;-75
2021/08/12 10:42:13;;;;;;;6.57;5.30;;;;;;;37.16;23.95;99705.00;5103692;28;20027;-75
2021/08/12 10:44:38;;;;;;;7.43;5.40;;;;;;;37.23;24.14;99708.03;5108380;28;20027;-73
2021/08/12 10:47:04;;;;;;;7.03;6.15;;;;;;;37.46;23.91;99708.22;5110865;28;20165;-74
2021/08/12 10:49:32;;;;;;;7.50;5.85;;;;;;;37.64;23.40;99714.19;5112127;28;20107;-75
2021/08/12 10:52:04;;;;;;;8.40;5.28;;;;;;;37.67;23.59;99707.97;5112127;28;20499;-75
2021/08/12 10:54:31;;;;;;;5.93;5.30;;;;;;;37.64;23.44;99716.97;5111391;28;20028;-75
2021/08/12 10:57:16;;;;;;;7.32;5.53;;;;;;;37.80;23.63;99713.09;5112173;28;20415;-75
2021/08/12 10:59:42;;;;;;;6.00;5.10;;;;;;;37.93;23.15;99702.78;5109704;28;20024;-74
2021/08/12 11:02:26;;;;;;;5.68;4.80;;;;;;;38.05;23.17;99701.88;5106120;28;20020;-74
2021/08/12 11:04:53;;;;;;;9.57;5.60;;;;;;;38.02;22.65;99689.63;5105385;28;20023;-74
2021/08/12 11:07:33;;;;;;;5.93;4.55;;;;;;;38.27;22.08;99695.72;5105148;28;20092;-74
2021/08/12 11:10:00;;;;;;;7.70;4.72;;;;;;;38.53;21.61;99699.84;5105289;28;20489;-75
2021/08/12 11:12:57;;;;;;;5.32;4.57;;;;;;;38.51;20.73;99675.38;5105091;28;20472;-75
2021/08/12 11:15:41;;;;;;;6.85;5.22;;;;;;;38.59;20.63;99690.09;5107686;27;20035;-74
2021/08/12 11:18:08;;;;;;;8.25;4.75;;;;;;;38.05;21.79;99690.84;5114124;27;20027;-74
2021/08/12 11:20:38;;;;;;;7.22;4.93;;;;;;;38.06;22.06;99684.97;5105153;28;20030;-74
2021/08/12 11:23:19;;;;;;;6.47;4.70;;;;;;;38.35;20.97;99686.44;5091842;28;20108;-74